sensor_id;sensor_type;location;lat;lon;timestamp;P1;P2;P0
66195;PMS7003;53000;45.182;5.736;2022-08-26T00:01:14;4.25;4.25;3.75
66195;PMS7003;53000;45.182;5.736;2022-08-26T00:03:39;5.00;5.00;4.75
66195;PMS7003;53000;45.182;5.736;2022-08-26T00:06:05;6.00;6.00;5.00
66195;PMS7003;53000;45.182;5.736;2022-08-26T00:08:31;5.00;4.25;4.00
66195;PMS7003;53000;45.182;5.736;2022-08-26T00:10:57;3.50;3.50;3.25
66195;PMS7003;53000;45.182;5.736;2022-08-26T00:13:23;4.75;4.75;4.00
66195;PMS7003;53000;45.182;5.736;2022-08-26T00:15:50;5.75;4.75;4.00
66195;PMS7003;53000;45.182;5.736;2022-08-26T00:18:16;5.50;5.50;4.50
66195;PMS7003;53000;45.182;5.736;2022-08-26T00:20:42;8.00;6.00;5.50
66195;PMS7003;53000;45.182;5.736;2022-08-26T00:23:07;5.00;5.00;5.00
66195;PMS7003;53000;45.182;5.736;2022-08-26T00:25:32;5.00;5.00;4.50
66195;PMS7003;53000;45.182;5.736;2022-08-26T00:27:59;4.75;4.25;4.00
66195;PMS7003;53000;45.182;5.736;2022-08-26T00:30:26;6.00;6.00;5.00
66195;PMS7003;53000;45.182;5.736;2022-08-26T00:32:53;5.25;5.00;5.00
66195;PMS7003;53000;45.182;5.736;2022-08-26T00:35:19;6.00;6.00;5.00
66195;PMS7003;53000;45.182;5.736;2022-08-26T00:37:45;5.75;5.75;5.25
66195;PMS7003;53000;45.182;5.736;2022-08-26T00:40:12;6.00;6.00;5.00
66195;PMS7003;53000;45.182;5.736;2022-08-26T00:42:44;5.50;4.75;4.00
66195;PMS7003;53000;45.182;5.736;2022-08-26T00:45:10;4.75;4.75;4.25
66195;PMS7003;53000;45.182;5.736;2022-08-26T00:47:37;5.00;5.00;4.50
66195;PMS7003;53000;45.182;5.736;2022-08-26T00:50:10;7.75;5.50;4.50
66195;PMS7003;53000;45.182;5.736;2022-08-26T00:52:38;4.75;4.75;4.25
66195;PMS7003;53000;45.182;5.736;2022-08-26T00:55:10;5.75;5.00;4.25
66195;PMS7003;53000;45.182;5.736;2022-08-26T00:57:42;7.75;4.00;4.00
66195;PMS7003;53000;45.182;5.736;2022-08-26T01:00:17;4.00;4.00;4.00
66195;PMS7003;53000;45.182;5.736;2022-08-26T01:02:47;3.50;3.00;3.00
66195;PMS7003;53000;45.182;5.736;2022-08-26T01:05:14;3.25;3.25;3.00
66195;PMS7003;53000;45.182;5.736;2022-08-26T01:07:41;5.25;5.25;4.25
66195;PMS7003;53000;45.182;5.736;2022-08-26T01:10:09;4.50;4.50;4.25
66195;PMS7003;53000;45.182;5.736;2022-08-26T01:12:41;5.75;5.50;4.75
66195;PMS7003;53000;45.182;5.736;2022-08-26T01:15:12;5.75;5.75;5.00
66195;PMS7003;53000;45.182;5.736;2022-08-26T01:17:41;5.75;3.25;3.25
66195;PMS7003;53000;45.182;5.736;2022-08-26T01:23:14;9.50;7.00;6.00
66195;PMS7003;53000;45.182;5.736;2022-08-26T01:25:41;3.75;3.25;3.25
66195;PMS7003;53000;45.182;5.736;2022-08-26T01:28:12;6.25;5.75;4.75
66195;PMS7003;53000;45.182;5.736;2022-08-26T01:30:40;5.25;4.50;4.00
66195;PMS7003;53000;45.182;5.736;2022-08-26T01:33:10;3.00;3.00;3.00
66195;PMS7003;53000;45.182;5.736;2022-08-26T01:35:41;5.00;5.00;5.00
66195;PMS7003;53000;45.182;5.736;2022-08-26T01:38:08;5.25;5.25;5.00
66195;PMS7003;53000;45.182;5.736;2022-08-26T01:40:35;5.00;4.50;3.75
66195;PMS7003;53000;45.182;5.736;2022-08-26T01:43:04;5.50;5.00;4.75
66195;PMS7003;53000;45.182;5.736;2022-08-26T01:45:32;4.50;4.50;4.00
66195;PMS7003;53000;45.182;5.736;2022-08-26T01:48:00;6.00;5.00;4.75
66195;PMS7003;53000;45.182;5.736;2022-08-26T01:50:31;5.75;4.00;4.00
66195;PMS7003;53000;45.182;5.736;2022-08-26T01:53:01;5.00;5.00;4.00
66195;PMS7003;53000;45.182;5.736;2022-08-26T01:55:29;6.75;5.75;5.00
66195;PMS7003;53000;45.182;5.736;2022-08-26T01:57:57;6.00;5.00;4.00
66195;PMS7003;53000;45.182;5.736;2022-08-26T02:00:23;6.00;6.00;5.25
66195;PMS7003;53000;45.182;5.736;2022-08-26T02:02:51;5.25;5.25;3.50
66195;PMS7003;53000;45.182;5.736;2022-08-26T02:05:39;5.75;5.75;4.75
66195;PMS7003;53000;45.182;5.736;2022-08-26T02:08:05;7.00;6.00;5.00
66195;PMS7003;53000;45.182;5.736;2022-08-26T02:10:32;6.00;6.00;5.00
66195;PMS7003;53000;45.182;5.736;2022-08-26T02:12:57;6.00;5.75;5.00
66195;PMS7003;53000;45.182;5.736;2022-08-26T02:15:23;7.75;7.75;6.75
66195;PMS7003;53000;45.182;5.736;2022-08-26T02:17:48;7.75;6.00;5.00
66195;PMS7003;53000;45.182;5.736;2022-08-26T02:20:16;6.25;6.25;5.50
66195;PMS7003;53000;45.182;5.736;2022-08-26T02:22:43;6.75;6.75;5.75
66195;PMS7003;53000;45.182;5.736;2022-08-26T02:25:30;7.00;7.00;6.00
66195;PMS7003;53000;45.182;5.736;2022-08-26T02:28:15;6.50;5.50;5.00
66195;PMS7003;53000;45.182;5.736;2022-08-26T02:30:42;5.25;5.25;4.25
66195;PMS7003;53000;45.182;5.736;2022-08-26T02:33:08;5.75;5.75;5.00
66195;PMS7003;53000;45.182;5.736;2022-08-26T02:35:34;7.50;6.75;6.00
66195;PMS7003;53000;45.182;5.736;2022-08-26T02:38:00;6.00;6.00;5.00
66195;PMS7003;53000;45.182;5.736;2022-08-26T02:40:30;6.00;6.00;5.00
66195;PMS7003;53000;45.182;5.736;2022-08-26T02:42:57;5.50;5.00;4.50
66195;PMS7003;53000;45.182;5.736;2022-08-26T02:45:23;6.00;5.75;5.00
66195;PMS7003;53000;45.182;5.736;2022-08-26T02:47:50;5.75;5.75;5.25
66195;PMS7003;53000;45.182;5.736;2022-08-26T02:50:16;5.75;5.25;5.00
66195;PMS7003;53000;45.182;5.736;2022-08-26T02:52:41;5.00;5.00;4.00
66195;PMS7003;53000;45.182;5.736;2022-08-26T02:55:07;6.00;6.00;5.00
66195;PMS7003;53000;45.182;5.736;2022-08-26T02:57:33;5.00;4.75;4.50
66195;PMS7003;53000;45.182;5.736;2022-08-26T02:59:59;5.50;5.50;5.00
66195;PMS7003;53000;45.182;5.736;2022-08-26T03:02:24;5.00;5.00;5.00
66195;PMS7003;53000;45.182;5.736;2022-08-26T03:04:50;6.75;6.75;6.00
66195;PMS7003;53000;45.182;5.736;2022-08-26T03:07:15;5.50;5.50;5.00
66195;PMS7003;53000;45.182;5.736;2022-08-26T03:09:41;4.25;4.25;4.00
66195;PMS7003;53000;45.182;5.736;2022-08-26T03:12:06;5.00;5.00;4.00
66195;PMS7003;53000;45.182;5.736;2022-08-26T03:14:32;6.00;6.00;5.00
66195;PMS7003;53000;45.182;5.736;2022-08-26T03:16:57;3.75;3.00;2.00
66195;PMS7003;53000;45.182;5.736;2022-08-26T03:19:23;6.00;6.00;4.50
66195;PMS7003;53000;45.182;5.736;2022-08-26T03:21:49;6.75;5.25;5.00
66195;PMS7003;53000;45.182;5.736;2022-08-26T03:24:16;7.50;7.50;6.00
66195;PMS7003;53000;45.182;5.736;2022-08-26T03:26:42;4.00;4.00;3.75
66195;PMS7003;53000;45.182;5.736;2022-08-26T03:29:08;9.00;6.00;5.75
66195;PMS7003;53000;45.182;5.736;2022-08-26T03:31:52;4.25;4.25;4.00
66195;PMS7003;53000;45.182;5.736;2022-08-26T03:34:18;5.50;5.50;5.25
66195;PMS7003;53000;45.182;5.736;2022-08-26T03:36:43;5.50;5.50;5.00
66195;PMS7003;53000;45.182;5.736;2022-08-26T03:39:10;7.25;7.00;6.00
66195;PMS7003;53000;45.182;5.736;2022-08-26T03:41:36;7.00;5.50;5.00
66195;PMS7003;53000;45.182;5.736;2022-08-26T03:44:03;5.50;5.50;5.25
66195;PMS7003;53000;45.182;5.736;2022-08-26T03:46:30;5.50;5.50;5.00
66195;PMS7003;53000;45.182;5.736;2022-08-26T03:48:57;8.00;6.00;5.25
66195;PMS7003;53000;45.182;5.736;2022-08-26T03:51:24;5.50;3.75;3.00
66195;PMS7003;53000;45.182;5.736;2022-08-26T03:53:50;5.25;4.75;4.00
66195;PMS7003;53000;45.182;5.736;2022-08-26T03:56:15;5.25;5.25;5.00
66195;PMS7003;53000;45.182;5.736;2022-08-26T03:58:41;2.25;2.00;2.00
66195;PMS7003;53000;45.182;5.736;2022-08-26T04:01:09;6.25;5.00;5.00
66195;PMS7003;53000;45.182;5.736;2022-08-26T04:03:35;7.00;7.00;5.25
66195;PMS7003;53000;45.182;5.736;2022-08-26T04:06:19;6.75;5.75;4.50
66195;PMS7003;53000;45.182;5.736;2022-08-26T04:08:44;5.75;5.75;5.00
66195;PMS7003;53000;45.182;5.736;2022-08-26T04:11:14;5.00;5.00;4.75
66195;PMS7003;53000;45.182;5.736;2022-08-26T04:13:42;3.25;3.25;3.00
66195;PMS7003;53000;45.182;5.736;2022-08-26T04:16:07;4.00;4.00;4.00
66195;PMS7003;53000;45.182;5.736;2022-08-26T04:18:33;7.00;7.00;5.75
66195;PMS7003;53000;45.182;5.736;2022-08-26T04:21:01;6.00;6.00;5.25
66195;PMS7003;53000;45.182;5.736;2022-08-26T04:23:28;6.00;5.25;5.00
66195;PMS7003;53000;45.182;5.736;2022-08-26T04:25:53;4.50;4.50;3.75
66195;PMS7003;53000;45.182;5.736;2022-08-26T04:28:19;4.00;4.00;4.00
66195;PMS7003;53000;45.182;5.736;2022-08-26T04:30:46;6.25;4.00;4.00
66195;PMS7003;53000;45.182;5.736;2022-08-26T04:33:11;6.25;5.75;5.00
66195;PMS7003;53000;45.182;5.736;2022-08-26T04:35:37;4.75;4.75;4.75
66195;PMS7003;53000;45.182;5.736;2022-08-26T04:38:03;5.50;5.50;5.00
66195;PMS7003;53000;45.182;5.736;2022-08-26T04:40:29;5.00;5.00;4.00
66195;PMS7003;53000;45.182;5.736;2022-08-26T04:42:54;5.75;5.75;5.50
66195;PMS7003;53000;45.182;5.736;2022-08-26T04:45:20;5.50;5.50;5.00
66195;PMS7003;53000;45.182;5.736;2022-08-26T04:47:46;6.25;6.00;5.00
66195;PMS7003;53000;45.182;5.736;2022-08-26T04:50:12;5.00;5.00;4.00
66195;PMS7003;53000;45.182;5.736;2022-08-26T04:52:39;10.00;7.75;6.25
66195;PMS7003;53000;45.182;5.736;2022-08-26T04:55:04;5.25;5.00;4.00
66195;PMS7003;53000;45.182;5.736;2022-08-26T04:57:31;8.75;5.75;5.75
66195;PMS7003;53000;45.182;5.736;2022-08-26T04:59:57;5.00;5.00;4.00
66195;PMS7003;53000;45.182;5.736;2022-08-26T05:02:23;6.00;6.00;5.00
66195;PMS7003;53000;45.182;5.736;2022-08-26T05:04:48;8.00;8.00;6.00
66195;PMS7003;53000;45.182;5.736;2022-08-26T05:07:14;7.00;7.00;6.00
66195;PMS7003;53000;45.182;5.736;2022-08-26T05:09:39;6.50;6.00;5.00
66195;PMS7003;53000;45.182;5.736;2022-08-26T05:12:05;6.50;6.00;5.00
66195;PMS7003;53000;45.182;5.736;2022-08-26T05:14:30;6.00;6.00;5.25
66195;PMS7003;53000;45.182;5.736;2022-08-26T05:16:56;7.00;6.75;6.00
66195;PMS7003;53000;45.182;5.736;2022-08-26T05:19:22;8.00;7.50;7.00
66195;PMS7003;53000;45.182;5.736;2022-08-26T05:21:47;6.75;6.25;5.25
66195;PMS7003;53000;45.182;5.736;2022-08-26T05:24:13;9.50;7.25;7.00
66195;PMS7003;53000;45.182;5.736;2022-08-26T05:26:39;5.25;5.00;4.00
66195;PMS7003;53000;45.182;5.736;2022-08-26T05:29:05;9.75;9.00;7.50
66195;PMS7003;53000;45.182;5.736;2022-08-26T05:31:31;8.00;8.00;7.00
66195;PMS7003;53000;45.182;5.736;2022-08-26T05:33:58;10.00;8.75;7.00
66195;PMS7003;53000;45.182;5.736;2022-08-26T05:36:25;8.25;7.25;6.75
66195;PMS7003;53000;45.182;5.736;2022-08-26T05:38:52;7.25;7.25;6.50
66195;PMS7003;53000;45.182;5.736;2022-08-26T05:41:20;9.50;8.50;6.75
66195;PMS7003;53000;45.182;5.736;2022-08-26T05:43:49;8.00;7.50;7.00
66195;PMS7003;53000;45.182;5.736;2022-08-26T05:46:15;7.00;7.00;7.00
66195;PMS7003;53000;45.182;5.736;2022-08-26T05:48:40;8.25;6.00;5.50
66195;PMS7003;53000;45.182;5.736;2022-08-26T05:51:07;6.25;6.25;6.00
66195;PMS7003;53000;45.182;5.736;2022-08-26T05:53:34;9.00;7.00;6.25
66195;PMS7003;53000;45.182;5.736;2022-08-26T05:56:02;6.00;6.00;5.00
66195;PMS7003;53000;45.182;5.736;2022-08-26T05:58:28;9.00;9.00;6.25
66195;PMS7003;53000;45.182;5.736;2022-08-26T06:03:30;8.00;7.50;6.50
66195;PMS7003;53000;45.182;5.736;2022-08-26T06:05:57;4.00;4.00;4.00
66195;PMS7003;53000;45.182;5.736;2022-08-26T06:08:23;6.75;6.50;5.50
66195;PMS7003;53000;45.182;5.736;2022-08-26T06:10:50;6.00;6.00;5.00
66195;PMS7003;53000;45.182;5.736;2022-08-26T06:13:21;5.00;5.00;4.75
66195;PMS7003;53000;45.182;5.736;2022-08-26T06:15:48;4.25;4.25;4.00
66195;PMS7003;53000;45.182;5.736;2022-08-26T06:18:16;4.00;4.00;3.75
66195;PMS7003;53000;45.182;5.736;2022-08-26T06:20:45;3.00;3.00;2.75
66195;PMS7003;53000;45.182;5.736;2022-08-26T06:23:12;7.00;5.00;4.25
66195;PMS7003;53000;45.182;5.736;2022-08-26T06:25:58;4.00;4.00;4.00
66195;PMS7003;53000;45.182;5.736;2022-08-26T06:28:24;5.75;5.75;5.00
66195;PMS7003;53000;45.182;5.736;2022-08-26T06:30:51;5.00;4.00;4.00
66195;PMS7003;53000;45.182;5.736;2022-08-26T06:33:17;7.50;7.00;6.00
66195;PMS7003;53000;45.182;5.736;2022-08-26T06:35:43;7.50;7.25;6.00
66195;PMS7003;53000;45.182;5.736;2022-08-26T06:38:10;5.00;4.50;4.00
66195;PMS7003;53000;45.182;5.736;2022-08-26T06:40:40;5.00;5.00;4.75
66195;PMS7003;53000;45.182;5.736;2022-08-26T06:43:14;5.00;5.00;4.00
66195;PMS7003;53000;45.182;5.736;2022-08-26T06:45:44;7.75;6.00;5.25
66195;PMS7003;53000;45.182;5.736;2022-08-26T06:48:11;5.75;5.75;4.75
66195;PMS7003;53000;45.182;5.736;2022-08-26T06:50:41;5.00;5.00;5.00
66195;PMS7003;53000;45.182;5.736;2022-08-26T06:53:07;6.00;5.00;5.00
66195;PMS7003;53000;45.182;5.736;2022-08-26T06:55:44;4.25;4.25;4.00
66195;PMS7003;53000;45.182;5.736;2022-08-26T06:58:10;1.75;1.00;1.00
66195;PMS7003;53000;45.182;5.736;2022-08-26T07:00:37;6.50;6.00;6.00
66195;PMS7003;53000;45.182;5.736;2022-08-26T07:03:03;6.75;6.75;6.00
66195;PMS7003;53000;45.182;5.736;2022-08-26T07:05:30;6.00;6.00;5.00
66195;PMS7003;53000;45.182;5.736;2022-08-26T07:07:56;5.00;5.00;5.00
66195;PMS7003;53000;45.182;5.736;2022-08-26T07:10:22;5.00;5.00;5.00
66195;PMS7003;53000;45.182;5.736;2022-08-26T07:12:48;5.75;5.00;4.50
66195;PMS7003;53000;45.182;5.736;2022-08-26T07:15:13;6.25;6.25;5.00
66195;PMS7003;53000;45.182;5.736;2022-08-26T07:17:39;6.00;5.75;5.25
66195;PMS7003;53000;45.182;5.736;2022-08-26T07:20:05;6.75;6.00;5.50
66195;PMS7003;53000;45.182;5.736;2022-08-26T07:22:32;6.00;5.75;5.00
66195;PMS7003;53000;45.182;5.736;2022-08-26T07:24:58;4.75;4.75;4.50
66195;PMS7003;53000;45.182;5.736;2022-08-26T07:27:23;5.00;4.75;4.25
66195;PMS7003;53000;45.182;5.736;2022-08-26T07:29:48;5.00;5.00;5.00
66195;PMS7003;53000;45.182;5.736;2022-08-26T07:32:14;4.75;4.75;4.50
66195;PMS7003;53000;45.182;5.736;2022-08-26T07:34:43;5.00;5.00;4.50
66195;PMS7003;53000;45.182;5.736;2022-08-26T07:37:09;5.50;5.50;4.50
66195;PMS7003;53000;45.182;5.736;2022-08-26T07:39:35;6.50;6.50;5.50
66195;PMS7003;53000;45.182;5.736;2022-08-26T07:42:02;5.25;5.25;5.00
66195;PMS7003;53000;45.182;5.736;2022-08-26T07:44:28;6.50;5.75;5.25
66195;PMS7003;53000;45.182;5.736;2022-08-26T07:46:54;6.50;6.00;5.50
66195;PMS7003;53000;45.182;5.736;2022-08-26T07:49:20;6.00;5.50;4.75
66195;PMS7003;53000;45.182;5.736;2022-08-26T07:51:47;6.75;6.75;5.50
66195;PMS7003;53000;45.182;5.736;2022-08-26T07:54:15;4.50;4.50;4.00
66195;PMS7003;53000;45.182;5.736;2022-08-26T07:56:41;5.25;5.25;5.00
66195;PMS7003;53000;45.182;5.736;2022-08-26T07:59:08;7.00;6.00;5.00
66195;PMS7003;53000;45.182;5.736;2022-08-26T08:01:34;6.00;6.00;5.00
66195;PMS7003;53000;45.182;5.736;2022-08-26T08:04:00;6.25;5.00;4.00
66195;PMS7003;53000;45.182;5.736;2022-08-26T08:06:26;7.00;7.00;6.00
66195;PMS7003;53000;45.182;5.736;2022-08-26T08:08:52;7.75;7.75;6.50
66195;PMS7003;53000;45.182;5.736;2022-08-26T08:11:18;7.75;6.75;5.75
66195;PMS7003;53000;45.182;5.736;2022-08-26T08:13:47;6.00;5.00;5.00
66195;PMS7003;53000;45.182;5.736;2022-08-26T08:16:14;6.00;6.00;6.00
66195;PMS7003;53000;45.182;5.736;2022-08-26T08:18:39;6.75;6.75;5.75
66195;PMS7003;53000;45.182;5.736;2022-08-26T08:21:04;5.25;5.25;5.00
66195;PMS7003;53000;45.182;5.736;2022-08-26T08:23:31;7.25;6.50;5.75
66195;PMS7003;53000;45.182;5.736;2022-08-26T08:26:04;6.50;6.00;5.00
66195;PMS7003;53000;45.182;5.736;2022-08-26T08:28:32;5.00;5.00;4.50
66195;PMS7003;53000;45.182;5.736;2022-08-26T08:30:58;8.00;6.75;5.50
66195;PMS7003;53000;45.182;5.736;2022-08-26T08:33:23;7.75;7.00;6.25
66195;PMS7003;53000;45.182;5.736;2022-08-26T08:35:50;6.25;6.25;6.25
66195;PMS7003;53000;45.182;5.736;2022-08-26T08:38:15;6.75;6.00;5.75
66195;PMS7003;53000;45.182;5.736;2022-08-26T08:40:41;6.00;5.00;4.00
66195;PMS7003;53000;45.182;5.736;2022-08-26T08:43:11;7.00;7.00;6.00
66195;PMS7003;53000;45.182;5.736;2022-08-26T08:45:41;9.00;8.00;6.75
66195;PMS7003;53000;45.182;5.736;2022-08-26T08:53:51;5.75;4.00;3.25
66195;PMS7003;53000;45.182;5.736;2022-08-26T08:56:25;4.75;4.75;4.00
66195;PMS7003;53000;45.182;5.736;2022-08-26T08:59:30;6.00;6.00;5.25
66195;PMS7003;53000;45.182;5.736;2022-08-26T09:02:09;6.25;6.25;5.50
66195;PMS7003;53000;45.182;5.736;2022-08-26T09:07:35;8.00;7.00;6.00
66195;PMS7003;53000;45.182;5.736;2022-08-26T09:13:09;5.00;5.00;4.25
66195;PMS7003;53000;45.182;5.736;2022-08-26T09:21:02;5.00;5.00;4.25
66195;PMS7003;53000;45.182;5.736;2022-08-26T09:23:32;6.00;6.00;5.00
66195;PMS7003;53000;45.182;5.736;2022-08-26T09:26:00;6.00;6.00;5.25
66195;PMS7003;53000;45.182;5.736;2022-08-26T09:28:29;7.00;6.00;6.00
66195;PMS7003;53000;45.182;5.736;2022-08-26T09:33:38;5.00;5.00;4.75
66195;PMS7003;53000;45.182;5.736;2022-08-26T09:38:56;5.25;5.25;5.00
66195;PMS7003;53000;45.182;5.736;2022-08-26T09:41:30;5.00;5.00;4.00
66195;PMS7003;53000;45.182;5.736;2022-08-26T09:46:35;8.25;7.00;6.00
66195;PMS7003;53000;45.182;5.736;2022-08-26T09:49:22;6.00;6.00;5.50
66195;PMS7003;53000;45.182;5.736;2022-08-26T09:54:37;6.00;6.00;5.50
66195;PMS7003;53000;45.182;5.736;2022-08-26T09:57:18;6.50;6.50;5.00
66195;PMS7003;53000;45.182;5.736;2022-08-26T09:59:45;7.00;7.00;6.00
66195;PMS7003;53000;45.182;5.736;2022-08-26T10:04:57;6.75;6.75;6.50
66195;PMS7003;53000;45.182;5.736;2022-08-26T10:10:19;9.50;7.25;6.25
66195;PMS7003;53000;45.182;5.736;2022-08-26T10:15:27;7.00;7.00;6.00
66195;PMS7003;53000;45.182;5.736;2022-08-26T10:18:05;5.25;5.25;5.00
66195;PMS7003;53000;45.182;5.736;2022-08-26T10:20:48;8.00;7.00;6.25
66195;PMS7003;53000;45.182;5.736;2022-08-26T10:23:22;7.50;7.00;6.00
66195;PMS7003;53000;45.182;5.736;2022-08-26T10:28:39;8.25;6.75;5.75
66195;PMS7003;53000;45.182;5.736;2022-08-26T10:31:07;7.00;7.00;6.00
66195;PMS7003;53000;45.182;5.736;2022-08-26T10:33:39;7.75;7.25;6.50
66195;PMS7003;53000;45.182;5.736;2022-08-26T10:36:06;7.25;7.25;6.75
66195;PMS7003;53000;45.182;5.736;2022-08-26T10:38:59;6.75;6.75;5.25
66195;PMS7003;53000;45.182;5.736;2022-08-26T10:41:30;5.25;5.25;4.25
66195;PMS7003;53000;45.182;5.736;2022-08-26T10:44:00;7.25;7.25;5.75
66195;PMS7003;53000;45.182;5.736;2022-08-26T10:46:43;8.50;7.00;6.00
66195;PMS7003;53000;45.182;5.736;2022-08-26T10:49:12;5.75;5.75;5.00
66195;PMS7003;53000;45.182;5.736;2022-08-26T10:52:02;6.00;6.00;5.75
66195;PMS7003;53000;45.182;5.736;2022-08-26T10:54:42;7.25;7.00;6.25
66195;PMS7003;53000;45.182;5.736;2022-08-26T11:00:51;8.25;7.00;6.00
66195;PMS7003;53000;45.182;5.736;2022-08-26T11:03:46;6.50;6.00;5.00
66195;PMS7003;53000;45.182;5.736;2022-08-26T11:06:24;6.50;6.50;5.75
66195;PMS7003;53000;45.182;5.736;2022-08-26T11:16:47;7.00;7.00;6.00
66195;PMS7003;53000;45.182;5.736;2022-08-26T11:35:11;6.00;6.00;5.00
66195;PMS7003;53000;45.182;5.736;2022-08-26T11:38:15;10.00;8.00;7.00
66195;PMS7003;53000;45.182;5.736;2022-08-26T11:40:49;8.00;8.00;7.00
66195;PMS7003;53000;45.182;5.736;2022-08-26T11:43:37;9.00;9.00;7.00
66195;PMS7003;53000;45.182;5.736;2022-08-26T11:46:05;8.00;8.00;7.00
66195;PMS7003;53000;45.182;5.736;2022-08-26T11:48:39;7.00;7.00;6.25
66195;PMS7003;53000;45.182;5.736;2022-08-26T11:53:44;8.00;7.00;5.50
66195;PMS7003;53000;45.182;5.736;2022-08-26T11:56:11;7.75;7.75;6.75
66195;PMS7003;53000;45.182;5.736;2022-08-26T11:58:47;8.50;8.50;7.00
66195;PMS7003;53000;45.182;5.736;2022-08-26T12:01:20;7.50;7.50;5.00
66195;PMS7003;53000;45.182;5.736;2022-08-26T12:03:51;7.00;7.00;5.75
66195;PMS7003;53000;45.182;5.736;2022-08-26T12:06:50;10.00;9.00;7.25
66195;PMS7003;53000;45.182;5.736;2022-08-26T12:09:13;9.00;8.00;7.00
66195;PMS7003;53000;45.182;5.736;2022-08-26T12:11:51;7.50;7.50;7.00
66195;PMS7003;53000;45.182;5.736;2022-08-26T12:14:32;8.00;8.00;8.00
66195;PMS7003;53000;45.182;5.736;2022-08-26T12:17:06;8.00;8.00;7.00
66195;PMS7003;53000;45.182;5.736;2022-08-26T12:19:36;8.25;8.25;7.25
66195;PMS7003;53000;45.182;5.736;2022-08-26T12:24:27;9.00;9.00;8.00
66195;PMS7003;53000;45.182;5.736;2022-08-26T12:27:54;8.25;8.25;7.25
66195;PMS7003;53000;45.182;5.736;2022-08-26T12:30:09;8.75;8.75;7.00
66195;PMS7003;53000;45.182;5.736;2022-08-26T12:32:36;8.50;8.25;8.00
66195;PMS7003;53000;45.182;5.736;2022-08-26T12:35:05;9.25;9.25;7.25
66195;PMS7003;53000;45.182;5.736;2022-08-26T12:37:33;6.50;6.50;6.25
66195;PMS7003;53000;45.182;5.736;2022-08-26T12:43:07;9.25;9.25;7.75
66195;PMS7003;53000;45.182;5.736;2022-08-26T12:48:01;10.25;10.25;8.25
66195;PMS7003;53000;45.182;5.736;2022-08-26T12:50:38;7.75;7.75;6.75
66195;PMS7003;53000;45.182;5.736;2022-08-26T12:55:43;9.00;9.00;8.00
66195;PMS7003;53000;45.182;5.736;2022-08-26T13:00:40;7.25;7.25;7.00
66195;PMS7003;53000;45.182;5.736;2022-08-26T13:05:53;8.00;8.00;6.25
66195;PMS7003;53000;45.182;5.736;2022-08-26T13:08:45;9.75;8.75;7.75
66195;PMS7003;53000;45.182;5.736;2022-08-26T13:14:05;9.00;9.00;8.00
66195;PMS7003;53000;45.182;5.736;2022-08-26T13:16:33;9.25;7.00;6.00
66195;PMS7003;53000;45.182;5.736;2022-08-26T13:19:00;13.00;11.00;8.75
66195;PMS7003;53000;45.182;5.736;2022-08-26T13:21:32;8.75;7.50;6.75
66195;PMS7003;53000;45.182;5.736;2022-08-26T13:24:07;9.75;8.50;8.00
66195;PMS7003;53000;45.182;5.736;2022-08-26T13:26:40;8.25;8.00;7.00
66195;PMS7003;53000;45.182;5.736;2022-08-26T13:29:08;9.00;9.00;7.50
66195;PMS7003;53000;45.182;5.736;2022-08-26T13:31:34;8.75;8.75;7.75
66195;PMS7003;53000;45.182;5.736;2022-08-26T13:34:01;8.50;8.50;6.50
66195;PMS7003;53000;45.182;5.736;2022-08-26T13:36:29;10.25;9.00;7.25
66195;PMS7003;53000;45.182;5.736;2022-08-26T13:38:55;10.50;10.25;8.50
66195;PMS7003;53000;45.182;5.736;2022-08-26T13:41:20;9.25;9.25;7.75
66195;PMS7003;53000;45.182;5.736;2022-08-26T13:43:46;14.25;12.00;9.75
66195;PMS7003;53000;45.182;5.736;2022-08-26T13:46:11;11.00;10.25;9.00
66195;PMS7003;53000;45.182;5.736;2022-08-26T13:48:36;11.00;11.00;8.75
66195;PMS7003;53000;45.182;5.736;2022-08-26T13:51:02;8.00;8.00;7.50
66195;PMS7003;53000;45.182;5.736;2022-08-26T13:53:28;9.00;8.50;8.00
66195;PMS7003;53000;45.182;5.736;2022-08-26T13:55:55;7.50;7.50;6.25
66195;PMS7003;53000;45.182;5.736;2022-08-26T13:58:22;7.50;7.50;7.00
66195;PMS7003;53000;45.182;5.736;2022-08-26T14:00:48;10.25;10.25;8.25
66195;PMS7003;53000;45.182;5.736;2022-08-26T14:03:14;9.00;8.25;7.25
66195;PMS7003;53000;45.182;5.736;2022-08-26T14:05:39;8.25;8.25;8.00
66195;PMS7003;53000;45.182;5.736;2022-08-26T14:08:05;8.50;7.50;7.00
66195;PMS7003;53000;45.182;5.736;2022-08-26T14:10:31;8.25;8.25;7.00
66195;PMS7003;53000;45.182;5.736;2022-08-26T14:12:56;7.50;7.50;6.75
66195;PMS7003;53000;45.182;5.736;2022-08-26T14:15:22;10.25;10.25;9.00
66195;PMS7003;53000;45.182;5.736;2022-08-26T14:17:47;9.25;9.00;7.00
66195;PMS7003;53000;45.182;5.736;2022-08-26T14:20:15;11.00;10.00;8.00
66195;PMS7003;53000;45.182;5.736;2022-08-26T14:22:52;8.00;8.00;7.25
66195;PMS7003;53000;45.182;5.736;2022-08-26T14:25:18;9.75;9.50;7.50
66195;PMS7003;53000;45.182;5.736;2022-08-26T14:27:45;7.50;7.50;5.50
66195;PMS7003;53000;45.182;5.736;2022-08-26T14:30:10;7.25;7.25;5.75
66195;PMS7003;53000;45.182;5.736;2022-08-26T14:32:37;6.50;6.50;5.75
66195;PMS7003;53000;45.182;5.736;2022-08-26T14:35:07;7.50;7.50;7.00
66195;PMS7003;53000;45.182;5.736;2022-08-26T14:37:34;8.75;8.00;6.75
66195;PMS7003;53000;45.182;5.736;2022-08-26T14:40:00;8.50;7.75;7.25
66195;PMS7003;53000;45.182;5.736;2022-08-26T14:42:26;7.00;6.50;5.00
66195;PMS7003;53000;45.182;5.736;2022-08-26T14:44:55;6.75;6.75;6.00
66195;PMS7003;53000;45.182;5.736;2022-08-26T14:47:22;7.25;7.25;6.25
66195;PMS7003;53000;45.182;5.736;2022-08-26T14:49:48;6.25;6.25;5.25
66195;PMS7003;53000;45.182;5.736;2022-08-26T14:52:14;6.50;6.25;5.75
66195;PMS7003;53000;45.182;5.736;2022-08-26T14:54:40;7.00;7.00;5.75
66195;PMS7003;53000;45.182;5.736;2022-08-26T14:57:06;9.75;8.00;6.75
66195;PMS7003;53000;45.182;5.736;2022-08-26T14:59:38;7.50;7.50;6.25
66195;PMS7003;53000;45.182;5.736;2022-08-26T15:02:06;8.50;7.00;6.00
66195;PMS7003;53000;45.182;5.736;2022-08-26T15:04:32;7.00;7.00;6.00
66195;PMS7003;53000;45.182;5.736;2022-08-26T15:06:58;9.25;8.00;6.25
66195;PMS7003;53000;45.182;5.736;2022-08-26T15:09:25;7.75;7.75;6.00
66195;PMS7003;53000;45.182;5.736;2022-08-26T15:11:52;7.75;7.00;5.50
66195;PMS7003;53000;45.182;5.736;2022-08-26T15:14:19;7.25;7.25;5.25
66195;PMS7003;53000;45.182;5.736;2022-08-26T15:16:49;8.00;8.00;7.00
66195;PMS7003;53000;45.182;5.736;2022-08-26T15:19:16;6.75;5.75;5.25
66195;PMS7003;53000;45.182;5.736;2022-08-26T15:21:42;9.00;8.25;6.75
66195;PMS7003;53000;45.182;5.736;2022-08-26T15:24:09;8.25;7.25;7.25
66195;PMS7003;53000;45.182;5.736;2022-08-26T15:26:35;7.00;7.00;6.00
66195;PMS7003;53000;45.182;5.736;2022-08-26T15:29:00;8.00;7.75;6.75
66195;PMS7003;53000;45.182;5.736;2022-08-26T15:31:27;7.25;7.25;6.25
66195;PMS7003;53000;45.182;5.736;2022-08-26T15:33:58;9.50;9.50;8.00
66195;PMS7003;53000;45.182;5.736;2022-08-26T15:36:27;7.50;6.50;5.50
66195;PMS7003;53000;45.182;5.736;2022-08-26T15:38:54;9.50;7.25;6.50
66195;PMS7003;53000;45.182;5.736;2022-08-26T15:41:21;8.25;8.25;7.25
66195;PMS7003;53000;45.182;5.736;2022-08-26T15:43:47;8.25;8.25;6.50
66195;PMS7003;53000;45.182;5.736;2022-08-26T15:46:12;9.75;8.75;6.25
66195;PMS7003;53000;45.182;5.736;2022-08-26T15:48:38;6.75;6.75;6.25
66195;PMS7003;53000;45.182;5.736;2022-08-26T15:51:04;9.75;6.75;6.00
66195;PMS7003;53000;45.182;5.736;2022-08-26T15:53:32;10.00;8.25;7.00
66195;PMS7003;53000;45.182;5.736;2022-08-26T15:55:59;9.25;9.25;7.50
66195;PMS7003;53000;45.182;5.736;2022-08-26T15:58:26;8.00;8.00;6.25
66195;PMS7003;53000;45.182;5.736;2022-08-26T16:00:52;7.25;7.25;6.00
66195;PMS7003;53000;45.182;5.736;2022-08-26T16:03:19;9.00;9.00;7.25